• Join FlightAware (Why Join?)
  • Login
  • US Flag 
05:26PM EDT


 

Airport Tracker/Info


-or-


 

Live Flight TrackerFlight Track Log ✈ JBU917 ✈ 21-Apr-2013 ✈ KJFK - KORD

Flight Track Log - Related Links

Times and Time Zones

All times are in EDT time to prevent confusion due to time zone crossing. See the JBU917 flight status page for this flight to view local times or setup timezone preferences in your user account.

Time Position Orientation Groundspeed Altitude Reporting Facility
EDT Latitude Longitude Course Direction KTS MPH feet Rate Location/Type
05:10PM 40.5833 -73.8167 323° Northwest 183 211 1,700  Level New York TRACON
05:11PM 40.5333 -73.8000 166° South 257 296 3,800 2,760 Climbing New York TRACON
05:12PM 40.7959 -74.0750 304° West  Level FlightAware Approximate
05:12PM 40.5500 -73.7000 78° East 259 298 7,300  Level New York TRACON
05:13PM 40.8502 -74.1836 303° West  Level FlightAware Approximate
05:13PM 40.5833 -73.6167 62° Northeast 278 320 10,000  Level New York TRACON
05:14PM 40.9069 -74.2902 306° West  Level FlightAware Approximate
05:14PM 40.6667 -73.5500 31° Northeast 326 375 11,600  Level New York TRACON
05:15PM 40.9645 -74.3960 306° West  Level FlightAware Approximate
05:15PM 40.7333 -73.5500 360° North 347 399 13,800  Level New York TRACON
05:16PM 41.0275 -74.4942 323° Northwest  Level FlightAware Approximate
05:16PM 40.8333 -73.5667 353° North 353 406 16,300  Level New York TRACON
05:17PM 40.9333 -73.6000 346° North 383 441 17,000 300 Climbing New York TRACON
05:18PM 40.9833 -73.7167 300° West 368 423 17,000  Level New York TRACON
05:19PM 41.0167 -73.8500 288° West 361 415 17,000  Level New York TRACON
05:20PM 41.0333 -73.9833 279° West 360 414 17,000  Level New York TRACON
05:21PM 41.0500 -74.1167 279° West 362 417 17,000  Level New York TRACON
05:23PM 41.0939 -74.3833 282° West 378 435 17,000  Level New York Center
05:24PM 41.1125 -74.5164 281° West 372 428 17,000  Level New York Center
05:25PM 41.1292 -74.6467 280° West 367 422 17,000 360 Level New York Center
05:26PM 41.1631 -74.7561 292° West 367 422 17,800 1,560 Climbing New York Center
05:27PM 41.2189 -74.8864 300° West 359 413 20,200 2,100 Climbing New York Center
05:28PM 41.2653 -74.9914 300° West 370 426 22,100 1,740 Climbing New York Center
05:29PM 41.3153 -75.1106 299° West 370 426 23,800 1,800 Climbing New York Center
05:30PM 41.3669 -75.2325 299° West 375 432 25,700 1,680 Climbing New York Center
05:31PM 41.4206 -75.3553 300° West 381 438 27,100 1,140 Climbing New York Center
05:32PM 41.4739 -75.4833 299° West 386 444 28,000 420 Climbing New York Center
05:33PM 41.5122 -75.6164 291° West 386 444 28,000  Level New York Center
05:34PM 41.5525 -75.7494 292° West 386 444 28,000  Level New York Center
05:35PM 41.5925 -75.8828 292° West 386 444 28,000  Level New York Center
05:36PM 41.6281 -76.0217 289° West 391 450 28,000 540 Level New York Center
05:37PM 41.6681 -76.1553 292° West 391 450 29,100 1,380 Climbing New York Center
05:38PM 41.7056 -76.2917 290° West 396 456 30,800 1,500 Climbing New York Center
05:39PM 41.7408 -76.4253 290° West 396 456 32,100 1,020 Climbing New York Center
05:40PM 41.7817 -76.5733 290° West 396 456 32,900 1,020 Climbing New York Center
05:42PM 41.8433 -76.7922 291° West 398 458 34,800 1,020 Climbing Cleveland Center
05:43PM 41.8811 -76.9267 291° West 398 458 35,600 840 Climbing Cleveland Center
05:44PM 41.9164 -77.0558 290° West 387 445 36,500 600 Climbing Cleveland Center
05:45PM 41.9539 -77.1933 290° West 382 440 36,900 420 Climbing Cleveland Center
05:46PM 41.9889 -77.3256 290° West 382 440 37,400 420 Climbing Cleveland Center
05:47PM 42.0261 -77.4608 290° West 382 440 37,800 300 Climbing Cleveland Center
05:48PM 42.0631 -77.5989 290° West 387 445 38,000 60 Climbing Cleveland Center
05:49PM 42.1000 -77.7397 290° West 392 451 38,000  Level Cleveland Center
05:50PM 42.1367 -77.8783 290° West 398 458 38,000  Level Cleveland Center
05:51PM 42.1733 -78.0194 289° West 404 465 38,000  Level Cleveland Center
05:52PM 42.2097 -78.1611 289° West 404 465 38,000  Level Cleveland Center
05:53PM 42.2481 -78.3028 290° West 404 465 38,000  Level Cleveland Center
05:54PM 42.2842 -78.4444 289° West 404 465 38,000  Level Cleveland Center
05:55PM 42.3200 -78.5867 289° West 404 465 38,000  Level Cleveland Center
05:56PM 42.3556 -78.7258 289° West 404 465 38,000  Level Cleveland Center
05:57PM 42.3911 -78.8711 288° West 403 464 38,000  Level Cleveland Center
05:58PM 42.4244 -79.0136 288° West 403 464 38,000  Level Cleveland Center
05:59PM 42.4639 -79.1592 290° West 403 464 38,000  Level Cleveland Center
06:00PM 42.4928 -79.3019 285° West 403 464 38,000  Level Cleveland Center
06:01PM 42.5025 -79.4511 275° West 403 464 38,000  Level Cleveland Center
06:02PM 42.5081 -79.6003 273° West 398 458 38,000  Level Cleveland Center
06:03PM 42.5156 -79.7467 274° West 398 458 38,000  Level Cleveland Center
06:04PM 42.5250 -79.8958 275° West 398 458 38,000  Level Cleveland Center
06:05PM 42.5256 -80.0450 270° West 403 464 38,000  Level Cleveland Center
06:06PM 42.5325 -80.1944 274° West 403 464 38,000  Level Cleveland Center
06:07PM 42.5369 -80.3436 272° West 403 464 38,000  Level Cleveland Center
06:08PM 42.5436 -80.4931 274° West 403 464 38,000  Level Cleveland Center
06:09PM 42.5497 -80.6422 273° West 396 456 38,000  Level Cleveland Center
06:10PM 42.5558 -80.7889 273° West 396 456 38,000  Level Cleveland Center
06:11PM 42.5617 -80.9383 273° West 401 461 38,000  Level Cleveland Center
06:12PM 42.5675 -81.0878 273° West 401 461 38,000  Level Cleveland Center
06:13PM 42.5731 -81.2344 273° West 401 461 38,000  Level Cleveland Center
06:14PM 42.5761 -81.3867 272° West 401 461 38,000  Level Cleveland Center
06:15PM 42.5958 -81.5308 281° West 401 461 38,000  Level Cleveland Center
06:16PM 42.6217 -81.6808 283° West 401 461 38,000  Level Cleveland Center
06:17PM 42.6453 -81.8081 284° West 401 461 38,000  Level Cleveland Center
06:18PM 42.6708 -81.9556 283° West 395 455 38,000  Level Cleveland Center
06:19PM 42.6961 -82.1031 283° West 395 455 38,000  Level Cleveland Center
06:20PM 42.7211 -82.2533 283° West 395 455 38,000  Level Cleveland Center
06:21PM 42.7458 -82.4039 283° West 395 455 38,000  Level Cleveland Center
06:22PM 42.7706 -82.5517 283° West 395 455 38,000  Level Cleveland Center
06:23PM 42.7972 -82.7025 284° West 401 461 38,000  Level Cleveland Center
06:24PM 42.8214 -82.8533 282° West 406 467 38,000  Level Cleveland Center
06:25PM 42.8475 -83.0044 283° West 412 474 38,000 -420 Level Cleveland Center
06:26PM 42.8711 -83.1556 282° West 412 474 37,200 -900 Descending Cleveland Center
06:27PM 42.8950 -83.3011 283° West 412 474 36,200 -1,020 Descending Cleveland Center
06:28PM 42.9183 -83.4522 282° West 412 474 35,200 -1,020 Descending Cleveland Center
06:29PM 42.9417 -83.6039 282° West 412 474 34,200 -960 Descending Cleveland Center
06:30PM 42.9625 -83.7553 281° West 412 474 33,300 -960 Descending Cleveland Center
06:31PM 42.9522 -83.9050 265° West 412 474 32,300 -660 Descending Cleveland Center
06:32PM 42.9372 -84.0544 262° West 400 460 32,000 -120 Descending Cleveland Center
06:34PM 42.9019 -84.4125 262° West 402 463 32,000  Level Chicago Center
06:35PM 42.8856 -84.5631 262° West 401 461 32,000  Level Chicago Center
06:36PM 42.8703 -84.7142 262° West 404 465 32,000  Level Chicago Center
06:37PM 42.8517 -84.8969 262° West 407 468 32,000  Level Chicago Center
06:38PM 42.8347 -85.0481 261° West 404 465 32,000 -360 Level Chicago Center
06:39PM 42.8186 -85.1981 262° West 402 463 31,300 -840 Descending Chicago Center
06:40PM 42.8022 -85.3517 262° West 407 468 30,300 -660 Descending Chicago Center
06:41PM 42.7853 -85.5039 261° West 406 467 30,000 -180 Descending Chicago Center
06:42PM 42.7589 -85.6550 257° West 408 470 30,000 -840 Level Chicago Center
06:43PM 42.7308 -85.8056 256° West 409 471 28,300 -2,340 Descending Chicago Center
06:44PM 42.6989 -85.9842 256° West 404 465 25,200 -2,760 Descending Chicago Center
06:45PM 42.6725 -86.1303 256° West 398 458 22,600 -2,520 Descending Chicago Center
06:46PM 42.6464 -86.2706 256° West 387 445 20,100 -1,380 Descending Chicago Center
06:47PM 42.6200 -86.4031 255° West 366 421 19,800 -300 Descending Chicago Center
06:48PM 42.5942 -86.5406 256° West 373 429 19,500 -840 Descending Chicago Center
06:49PM 42.5689 -86.6750 256° West 369 425 18,100 -1,800 Descending Chicago Center
06:51PM 42.5411 -86.8092 254° West 370 426 15,800 -2,520 Descending Chicago Center
06:52PM 42.4994 -86.9544 249° West 354 407 12,900 -2,640 Descending Chicago Center
06:53PM 42.4656 -87.0708 248° West 338 389 10,400 -1,440 Descending Chicago Center
06:54PM 42.4350 -87.1853 250° West 328 377 10,000 -720 Descending Chicago Center
06:55PM 42.4083 -87.2789 249° West 273 314 9,000 -540 Descending Chicago Center
06:56PM 42.3828 -87.3733 250° West 267 307 9,000  Level Chicago Center
06:57PM 42.3414 -87.4581 237° Southwest 266 306 9,000 -420 Level Chicago Center
06:58PM 42.2903 -87.5558 235° Southwest 267 307 8,200 -1,020 Descending Chicago Center
06:59PM 42.2425 -87.6247 227° Southwest 257 296 7,000 -1,380 Descending Chicago Center
07:00PM 42.1828 -87.6914 220° Southwest 261 300 5,400 -1,260 Descending Chicago Center
07:01PM 42.1381 -87.7431 221° Southwest 242 278 4,500 -1,080 Descending Chicago Center
07:01PM 42.1000 -87.7667 205° Southwest 206 237 3,700 -1,200 Descending Chicago TRACON
07:02PM 42.0667 -87.8167 228° Southwest 188 216 2,600 -1,080 Descending Chicago TRACON
07:03PM 42.0333 -87.8500 217° Southwest 145 167 1,600 -900 Descending Chicago TRACON
07:04PM 42.0000 -87.8833 217° Southwest 128 147 900 -720 Descending Chicago TRACON
07:06PM 41.9817 -87.9067 217° Southwest  Level Estimated